createdAt,value
2023-05-31T00:01:10.706Z,4.10
2023-05-31T00:06:14.973Z,3.87
2023-05-31T00:11:17.950Z,4.70
2023-05-31T00:16:52.344Z,4.47
2023-05-31T00:21:46.847Z,4.03
2023-05-31T00:26:50.541Z,3.40
2023-05-31T00:31:53.462Z,3.50
2023-05-31T00:36:57.778Z,3.40
2023-05-31T00:42:00.717Z,3.60
2023-05-31T00:47:03.736Z,3.43
2023-05-31T00:52:09.308Z,3.90
2023-05-31T00:57:12.460Z,3.30
2023-05-31T01:02:18.352Z,3.93
2023-05-31T01:07:22.727Z,3.47
2023-05-31T01:12:35.367Z,3.40
2023-05-31T01:17:46.119Z,4.00
2023-05-31T01:23:13.975Z,3.77
2023-05-31T01:28:18.923Z,3.30
2023-05-31T01:33:23.359Z,3.80
2023-05-31T01:38:26.387Z,3.40
2023-05-31T01:43:33.035Z,3.40
2023-05-31T01:48:36.820Z,3.60
2023-05-31T01:53:39.872Z,3.67
2023-05-31T01:58:49.945Z,3.30
2023-05-31T02:03:53.966Z,3.70
2023-05-31T02:08:57.058Z,3.50
2023-05-31T02:14:04.820Z,5.40
2023-05-31T02:19:07.847Z,5.67
2023-05-31T02:24:10.891Z,7.30
2023-05-31T02:29:15.198Z,5.53
2023-05-31T02:34:19.542Z,4.80
2023-05-31T02:39:22.499Z,5.00
2023-05-31T02:44:27.184Z,4.10
2023-05-31T02:49:30.122Z,4.50
2023-05-31T02:54:33.500Z,3.93
2023-05-31T02:59:38.021Z,3.90
2023-05-31T03:04:45.694Z,4.20
2023-05-31T03:09:50.928Z,5.10
2023-05-31T03:14:55.218Z,5.13
2023-05-31T03:19:58.381Z,5.40
2023-05-31T03:25:01.615Z,5.37
2023-05-31T03:30:07.427Z,5.40
2023-05-31T03:35:16.483Z,6.30
2023-05-31T03:40:20.206Z,5.37
2023-05-31T03:45:25.508Z,5.30
2023-05-31T03:50:30.163Z,5.60
2023-05-31T03:55:33.663Z,5.43
2023-05-31T04:00:38.123Z,4.73
2023-05-31T04:05:41.348Z,4.50
2023-05-31T04:10:45.498Z,4.00
2023-05-31T04:15:49.945Z,4.20
2023-05-31T04:20:54.988Z,4.87
2023-05-31T04:25:58.754Z,4.07
2023-05-31T04:31:03.679Z,4.47
2023-05-31T04:36:10.862Z,4.00
2023-05-31T04:41:15.604Z,4.30
2023-05-31T04:46:20.556Z,4.33
2023-05-31T04:51:25.523Z,4.67
2023-05-31T04:56:28.550Z,3.90
2023-05-31T05:01:33.244Z,4.67
2023-05-31T05:06:42.963Z,4.00
2023-05-31T05:11:46.511Z,3.70
2023-05-31T05:16:51.343Z,3.50
2023-05-31T05:21:54.420Z,3.40
2023-05-31T05:27:00.042Z,3.27
2023-05-31T05:32:05.523Z,3.87
2023-05-31T05:37:08.701Z,3.83
2023-05-31T05:42:13.123Z,3.40
2023-05-31T05:47:17.594Z,2.90
2023-05-31T05:52:22.114Z,3.20
2023-05-31T05:57:26.088Z,3.90
2023-05-31T06:02:35.998Z,3.37
2023-05-31T06:07:39.137Z,3.57
2023-05-31T06:12:42.144Z,3.40
2023-05-31T06:17:49.199Z,3.47
2023-05-31T06:22:52.745Z,3.80
2023-05-31T06:27:58.325Z,3.60
2023-05-31T06:33:03.610Z,3.10
2023-05-31T06:38:06.763Z,3.77
2023-05-31T06:43:09.899Z,3.50
2023-05-31T06:48:36.997Z,3.30
2023-05-31T06:53:59.323Z,3.87
2023-05-31T06:59:03.508Z,3.87
2023-05-31T07:04:08.135Z,3.67
2023-05-31T07:09:11.525Z,3.55
2023-05-31T07:14:34.761Z,3.37
2023-05-31T07:19:46.753Z,3.25
2023-05-31T07:24:50.098Z,3.00
2023-05-31T07:36:11.110Z,2.47
2023-05-31T07:48:15.962Z,2.42
2023-05-31T07:53:20.433Z,2.35
2023-05-31T07:58:23.440Z,3.13
2023-05-31T08:03:27.731Z,2.85
2023-05-31T08:08:33.947Z,2.20
2023-05-31T08:13:36.936Z,2.50
2023-05-31T08:18:39.900Z,3.00
2023-05-31T08:23:44.714Z,2.28
2023-05-31T08:28:47.685Z,3.35
2023-05-31T08:33:58.192Z,2.50
2023-05-31T08:39:04.589Z,2.58
2023-05-31T08:44:08.183Z,2.20
2023-05-31T08:49:12.963Z,2.80
2023-05-31T08:54:19.246Z,3.10
2023-05-31T08:59:23.002Z,2.95
2023-05-31T09:04:27.545Z,2.30
2023-05-31T09:09:31.841Z,2.60
2023-05-31T09:14:35.939Z,2.45
2023-05-31T09:19:42.678Z,2.28
2023-05-31T09:24:53.563Z,2.65
2023-05-31T09:29:57.333Z,2.88
2023-05-31T09:35:12.197Z,2.50
2023-05-31T09:40:17.212Z,2.65
2023-05-31T09:45:21.373Z,1.98
2023-05-31T09:50:25.545Z,3.03
2023-05-31T09:55:41.565Z,2.60
2023-05-31T10:00:47.578Z,2.63
2023-05-31T10:05:51.047Z,2.53
2023-05-31T10:10:56.407Z,2.72
2023-05-31T10:16:06.039Z,2.40
2023-05-31T10:21:11.528Z,2.45
2023-05-31T10:26:18.659Z,2.60
2023-05-31T10:31:24.855Z,2.13
2023-05-31T10:36:28.680Z,2.10
2023-05-31T10:41:43.236Z,2.42
2023-05-31T10:46:49.312Z,2.65
2023-05-31T10:51:52.254Z,1.95
2023-05-31T10:56:56.994Z,1.95
2023-05-31T11:02:01.515Z,2.22
2023-05-31T11:07:17.682Z,2.30
2023-05-31T11:12:33.859Z,2.25
2023-05-31T11:17:53.541Z,2.00
2023-05-31T11:23:42.314Z,2.10
2023-05-31T11:28:58.461Z,2.00
2023-05-31T11:34:19.872Z,2.13
2023-05-31T11:39:22.984Z,2.28
2023-05-31T11:44:31.868Z,2.38
2023-05-31T11:49:35.373Z,2.45
2023-05-31T11:54:38.993Z,2.00
2023-05-31T11:59:43.302Z,2.30
2023-05-31T12:04:46.385Z,2.42
2023-05-31T12:09:49.630Z,2.08
2023-05-31T12:14:55.775Z,2.35
2023-05-31T12:19:58.822Z,2.58
2023-05-31T12:25:02.914Z,2.42
2023-05-31T12:30:08.845Z,2.78
2023-05-31T12:35:13.990Z,2.38
2023-05-31T12:40:23.582Z,2.20
2023-05-31T12:45:29.390Z,2.50
2023-05-31T12:50:32.552Z,2.40
2023-05-31T12:55:36.108Z,2.40
2023-05-31T13:00:40.713Z,2.50
2023-05-31T13:05:43.842Z,2.40
2023-05-31T13:10:47.137Z,2.60
2023-05-31T13:15:51.803Z,2.20
2023-05-31T13:20:54.926Z,2.40
2023-05-31T13:25:58.031Z,2.63
2023-05-31T13:31:02.641Z,2.60
2023-05-31T13:36:06.062Z,2.95
2023-05-31T13:41:10.322Z,2.35
2023-05-31T13:46:15.566Z,2.47
2023-05-31T13:51:18.637Z,2.75
2023-05-31T13:56:22.879Z,2.67
2023-05-31T14:01:27.362Z,2.30
2023-05-31T14:06:30.492Z,2.70
2023-05-31T14:11:33.429Z,2.47
2023-05-31T14:16:37.820Z,2.85
2023-05-31T14:21:43.516Z,2.65
2023-05-31T14:26:46.994Z,2.53
2023-05-31T14:31:51.398Z,3.10
2023-05-31T14:36:54.532Z,2.65
2023-05-31T14:41:57.851Z,2.50
2023-05-31T14:47:02.193Z,2.47
2023-05-31T14:52:08.581Z,2.58
2023-05-31T14:57:11.526Z,2.67
2023-05-31T15:02:16.023Z,2.60
2023-05-31T15:07:19.176Z,2.85
2023-05-31T15:12:23.240Z,3.20
2023-05-31T15:17:28.016Z,2.65
2023-05-31T15:22:31.202Z,3.20
2023-05-31T15:27:34.196Z,3.03
2023-05-31T15:32:38.547Z,2.40
2023-05-31T15:37:41.580Z,2.65
2023-05-31T15:42:44.610Z,2.40
2023-05-31T15:47:48.911Z,2.85
2023-05-31T15:52:51.921Z,2.78
2023-05-31T15:57:54.836Z,2.72
2023-05-31T16:02:59.213Z,2.92
2023-05-31T16:08:05.854Z,3.03
2023-05-31T16:13:09.480Z,2.35
2023-05-31T16:18:13.930Z,2.70
2023-05-31T16:23:16.890Z,2.92
2023-05-31T16:28:19.876Z,3.17
2023-05-31T16:33:25.386Z,2.75
2023-05-31T16:38:28.438Z,2.70
2023-05-31T16:43:31.401Z,2.72
2023-05-31T16:48:37.595Z,3.17
2023-05-31T16:53:46.536Z,2.90
2023-05-31T16:58:49.553Z,2.45
2023-05-31T17:03:53.975Z,2.50
2023-05-31T17:08:56.934Z,2.78
2023-05-31T17:13:59.869Z,3.38
2023-05-31T17:19:04.219Z,2.78
2023-05-31T17:24:07.669Z,2.80
2023-05-31T17:29:10.878Z,2.80
2023-05-31T17:34:15.472Z,2.70
2023-05-31T17:39:18.456Z,2.80
2023-05-31T17:44:21.532Z,3.00
2023-05-31T17:49:25.959Z,2.67
2023-05-31T17:54:28.981Z,3.08
2023-05-31T17:59:32.038Z,2.97
2023-05-31T18:04:36.390Z,2.60
2023-05-31T18:09:39.314Z,2.97
2023-05-31T18:14:42.300Z,2.53
2023-05-31T18:19:46.608Z,2.72
2023-05-31T18:24:49.549Z,3.67
2023-05-31T18:29:52.883Z,3.03
2023-05-31T18:34:57.378Z,2.97
2023-05-31T18:40:00.306Z,2.90
2023-05-31T18:45:03.536Z,2.85
2023-05-31T18:50:09.074Z,2.80
2023-05-31T18:55:12.090Z,4.50
2023-05-31T19:00:16.430Z,11.90
2023-05-31T19:05:21.398Z,7.30
2023-05-31T19:10:24.353Z,4.30
2023-05-31T19:15:27.733Z,3.60
2023-05-31T19:20:32.046Z,3.45
2023-05-31T19:25:35.354Z,3.17
2023-05-31T19:30:38.357Z,3.57
2023-05-31T19:35:42.695Z,4.47
2023-05-31T19:40:45.660Z,4.65
2023-05-31T19:45:48.744Z,3.53
2023-05-31T19:50:53.336Z,4.50
2023-05-31T19:55:56.364Z,4.57
2023-05-31T20:00:59.297Z,4.20
2023-05-31T20:06:04.433Z,4.50
2023-05-31T20:11:07.798Z,4.40
2023-05-31T20:16:11.955Z,3.37
2023-05-31T20:21:17.411Z,3.50
2023-05-31T20:26:22.828Z,3.40
2023-05-31T20:31:25.813Z,5.90
2023-05-31T20:36:30.153Z,4.80
2023-05-31T20:41:33.157Z,5.00
2023-05-31T20:46:36.251Z,6.13
2023-05-31T20:51:40.602Z,6.40
2023-05-31T20:56:43.564Z,5.67
2023-05-31T21:01:47.130Z,4.93
2023-05-31T21:06:51.610Z,4.80
2023-05-31T21:11:54.618Z,5.40
2023-05-31T21:16:58.299Z,4.40
2023-05-31T21:22:02.738Z,6.00
2023-05-31T21:27:06.411Z,6.37
2023-05-31T21:32:09.691Z,5.50
2023-05-31T21:37:14.001Z,5.17
2023-05-31T21:42:16.973Z,6.97
2023-05-31T21:47:19.940Z,7.27
2023-05-31T21:52:30.436Z,8.40
2023-05-31T21:57:33.377Z,5.20
2023-05-31T22:02:36.379Z,5.23
2023-05-31T22:07:40.695Z,3.97
2023-05-31T22:12:43.929Z,3.90
2023-05-31T22:17:53.184Z,4.43
2023-05-31T22:22:58.818Z,4.60
2023-05-31T22:28:01.794Z,4.13
2023-05-31T22:33:04.930Z,4.30
2023-05-31T22:38:09.255Z,4.20
2023-05-31T22:43:12.234Z,4.40
2023-05-31T22:48:15.110Z,4.43
2023-05-31T22:53:19.410Z,4.27
2023-05-31T22:58:22.310Z,4.90
2023-05-31T23:03:25.698Z,5.07
2023-05-31T23:08:31.339Z,5.00
2023-05-31T23:13:36.834Z,4.60
2023-05-31T23:18:39.817Z,5.03
2023-05-31T23:23:44.140Z,5.03
2023-05-31T23:28:47.043Z,5.27
2023-05-31T23:33:49.962Z,4.70
2023-05-31T23:38:56.910Z,5.10
2023-05-31T23:43:59.877Z,4.27
2023-05-31T23:49:03.478Z,4.90
2023-05-31T23:54:10.787Z,4.20
2023-05-31T23:59:13.760Z,5.20
